Řízení letového provozu České republiky
OPMET data - Ceska Republika Aktualizace: 28.06.2017 05:12:10  UTC
SIGMET / AIRMET - NIL
Warning / Vystraha - NIL
 
METAR / SPECI
METAR COR LKCV 280508Z 10002KT 0300 FG VV001 16/16 Q1003=
METAR LKKB 280500Z VRB03KT 0500 FG VV002 16/16 Q1004 NOSIG=
METAR LKKU 280500Z 16007KT 130V210 CAVOK 24/15 Q1004=
METAR LKKV 280500Z 00000KT 6000 NSC 14/14 Q1004 RMK REG QNH 1002=
METAR LKLN 280500Z AUTO 03003KT 340V070 4200 BR OVC004 15/14 Q1003=
METAR LKMT 280500Z VRB02KT 7000 NSC 19/17 Q1005 NOSIG RMK REG QNH 1002=
METAR LKNA 280500Z 11005KT CAVOK 19/16 Q1004 NOSIG=
METAR LKPD 280500Z VRB01KT 0300 R27/0300N FG VV001 16/16 Q1003 NOSIG=
METAR LKPR 280500Z 01003KT 320V060 0300 R24/0450D R30/0350N FG VV001 16/15 Q1004 BECMG 0700 FG VV002 RMK REG QNH 1002=
METAR LKTB 280500Z 12006KT CAVOK 22/16 Q1004 NOSIG RMK REG QNH 1002=
METAR LKVO NIL
TAF
TAF LKCV NIL
TAF AMD LKKB 272300Z 2801/2900 VRB02KT 2000 BR BKN002      TEMPO 2801/2804 0600 FG OVC002      BECMG 2806/2808 02008KT 5000 BR BKN012      BECMG 2808/2810 9999 SCT030      TEMPO 2810/2820 35014G28KT 4000 TSRA BKN027CB      PROB30 TEMPO 2812/2818 35016G36KT 1000 TSGR BKN027CB      BECMG 2816/2818 26008KT=
TAF LKKU NIL
TAF AMD LKKV 280330Z 2804/2906 VRB02KT CAVOK      TEMPO 2804/2806 4000 BR BKN002      PROB30 TEMPO 2804/2806 0400 FG BKN001      PROB40 TEMPO 2811/2817 30010G30KT 2000 TSRA BKN010CB      TEMPO 2902/2906 28010KT 7000 SHRA SCT035TCU      PROB30 TEMPO 2902/2906 30014G26KT 3000 TSRA BKN030CB=
TAF LKLN NIL
TAF AMD LKMT 280330Z 2804/2906 VRB02KT CAVOK      TEMPO 2804/2807 4000 BR NSC      PROB30 TEMPO 2804/2805 1200 MIFG BKN002      BECMG 2807/2809 19010KT      TEMPO 2810/2823 20018G38KT      PROB40 TEMPO 2816/2821 3000 TSRA BKN020CB      PROB30 TEMPO 2821/2902 SHRA SCT035TCU=
TAF LKNA 272300Z 2800/2900 VRB02KT CAVOK      BECMG 2805/2807 16010KT      BECMG 2811/2813 17012G24KT SCT040      TEMPO 2814/2820 7000 SHRA BKN035      PROB40 TEMPO 2815/2818 31020G34KT 4000 TSRA BKN020CB=
TAF LKPD 272300Z 2800/2900 07004KT 3000 NSC      TEMPO 2800/2805 0600 FG      PROB40 TEMPO 2800/2805 0300 FG      BECMG 2806/2808 CAVOK      TEMPO 2810/2818 28020G35KT 3000 TSRA SCT025CB=
TAF AMD LKPR 280330Z 2804/2906 VRB02KT CAVOK      TEMPO 2804/2806 1200 MIFG BKN003      PROB30 TEMPO 2804/2805 0300 FG BKN001      PROB40 TEMPO 2814/2820 27020G38KT 2000 TSRA BKN015CB      TEMPO 2820/2906 20010KT 7000 SHRA SCT035TCU      PROB30 TEMPO 2820/2906 20022G36KT 3000 TSRA BKN030CB=
TAF LKTB 272300Z 2800/2906 15008KT CAVOK      BECMG 2807/2809 13010KT      TEMPO 2809/2818 13018G38KT      PROB40 TEMPO 2817/2821 5000 TSRA BKN025CB      TEMPO 2821/2906 7000 SHRA SCT035TCU      PROB30 TEMPO 2821/2902 20022G36KT 3000 TSRA BKN030CB=
TAF LKVO NIL